sensor_id;sensor_type;location;lat;lon;timestamp;pressure;altitude;pressure_sealevel;temperature;humidity
55538;BME280;41383;51.418;7.286;2023-04-25T00:01:03;99207.88;;;8.27;69.87
55538;BME280;41383;51.418;7.286;2023-04-25T00:03:30;99216.47;;;8.14;70.58
55538;BME280;41383;51.418;7.286;2023-04-25T00:05:55;99197.44;;;8.09;70.86
55538;BME280;41383;51.418;7.286;2023-04-25T00:08:21;99199.66;;;8.17;70.86
55538;BME280;41383;51.418;7.286;2023-04-25T00:10:47;99202.16;;;8.29;70.59
55538;BME280;41383;51.418;7.286;2023-04-25T00:13:14;99214.00;;;8.07;70.97
55538;BME280;41383;51.418;7.286;2023-04-25T00:15:39;99217.09;;;8.26;70.32
55538;BME280;41383;51.418;7.286;2023-04-25T00:18:06;99207.88;;;8.33;70.35
55538;BME280;41383;51.418;7.286;2023-04-25T00:20:31;99207.13;;;8.43;70.27
55538;BME280;41383;51.418;7.286;2023-04-25T00:22:57;99209.53;;;8.34;70.59
55538;BME280;41383;51.418;7.286;2023-04-25T00:25:22;99211.44;;;8.33;70.87
55538;BME280;41383;51.418;7.286;2023-04-25T00:27:47;99213.91;;;8.40;70.85
55538;BME280;41383;51.418;7.286;2023-04-25T00:30:13;99214.75;;;8.46;70.52
55538;BME280;41383;51.418;7.286;2023-04-25T00:32:39;99212.59;;;8.48;70.42
55538;BME280;41383;51.418;7.286;2023-04-25T00:35:04;99212.91;;;8.57;70.45
55538;BME280;41383;51.418;7.286;2023-04-25T00:37:29;99213.28;;;8.76;69.33
55538;BME280;41383;51.418;7.286;2023-04-25T00:39:57;99211.91;;;8.73;69.56
55538;BME280;41383;51.418;7.286;2023-04-25T00:42:22;99216.69;;;8.56;70.22
55538;BME280;41383;51.418;7.286;2023-04-25T00:44:48;99217.34;;;8.68;70.38
55538;BME280;41383;51.418;7.286;2023-04-25T00:47:14;99215.97;;;8.66;70.39
55538;BME280;41383;51.418;7.286;2023-04-25T00:49:40;99212.41;;;8.60;70.16
55538;BME280;41383;51.418;7.286;2023-04-25T00:52:05;99207.25;;;8.58;70.50
55538;BME280;41383;51.418;7.286;2023-04-25T00:54:30;99212.41;;;8.60;70.70
55538;BME280;41383;51.418;7.286;2023-04-25T00:56:56;99205.31;;;8.59;69.92
55538;BME280;41383;51.418;7.286;2023-04-25T00:59:21;99210.09;;;8.41;71.01
55538;BME280;41383;51.418;7.286;2023-04-25T01:01:47;99211.09;;;8.24;71.90
55538;BME280;41383;51.418;7.286;2023-04-25T01:04:13;99217.09;;;8.26;72.23
55538;BME280;41383;51.418;7.286;2023-04-25T01:06:38;99212.81;;;8.41;71.76
55538;BME280;41383;51.418;7.286;2023-04-25T01:09:04;99212.97;;;8.62;70.92
55538;BME280;41383;51.418;7.286;2023-04-25T01:11:30;99213.44;;;8.53;71.19
55538;BME280;41383;51.418;7.286;2023-04-25T01:13:55;99222.13;;;8.56;71.54
55538;BME280;41383;51.418;7.286;2023-04-25T01:16:21;99210.09;;;8.41;71.36
55538;BME280;41383;51.418;7.286;2023-04-25T01:18:49;99211.72;;;8.42;72.08
55538;BME280;41383;51.418;7.286;2023-04-25T01:21:15;99213.44;;;8.53;71.76
55538;BME280;41383;51.418;7.286;2023-04-25T01:23:41;99209.81;;;8.37;71.92
55538;BME280;41383;51.418;7.286;2023-04-25T01:26:08;99213.50;;;8.64;71.67
55538;BME280;41383;51.418;7.286;2023-04-25T01:28:34;99215.69;;;8.67;72.03
55538;BME280;41383;51.418;7.286;2023-04-25T01:31:00;99212.69;;;8.63;72.00
55538;BME280;41383;51.418;7.286;2023-04-25T01:33:26;99219.00;;;8.74;71.80
55538;BME280;41383;51.418;7.286;2023-04-25T01:35:51;99213.28;;;8.76;71.65
55538;BME280;41383;51.418;7.286;2023-04-25T01:38:17;99215.19;;;8.75;71.70
55538;BME280;41383;51.418;7.286;2023-04-25T01:40:44;99216.22;;;8.64;71.92
55538;BME280;41383;51.418;7.286;2023-04-25T01:43:10;99225.19;;;8.64;73.01
55538;BME280;41383;51.418;7.286;2023-04-25T01:45:38;99222.50;;;8.70;72.33
55538;BME280;41383;51.418;7.286;2023-04-25T01:48:11;99225.69;;;8.56;73.30
55538;BME280;41383;51.418;7.286;2023-04-25T01:50:38;99220.75;;;8.53;73.60
55538;BME280;41383;51.418;7.286;2023-04-25T01:53:04;99227.31;;;8.57;73.58
55538;BME280;41383;51.418;7.286;2023-04-25T01:55:30;99234.28;;;8.37;74.03
55538;BME280;41383;51.418;7.286;2023-04-25T01:57:55;99236.50;;;8.46;74.30
55538;BME280;41383;51.418;7.286;2023-04-25T02:00:21;99229.97;;;8.47;74.01
55538;BME280;41383;51.418;7.286;2023-04-25T02:02:46;99236.31;;;8.58;73.98
55538;BME280;41383;51.418;7.286;2023-04-25T02:05:11;99241.75;;;8.58;73.63
55538;BME280;41383;51.418;7.286;2023-04-25T02:07:36;99236.91;;;8.75;72.99
55538;BME280;41383;51.418;7.286;2023-04-25T02:10:03;99242.91;;;8.78;73.09
55538;BME280;41383;51.418;7.286;2023-04-25T02:12:28;99233.81;;;8.56;73.13
55538;BME280;41383;51.418;7.286;2023-04-25T02:14:53;99238.94;;;8.47;73.76
55538;BME280;41383;51.418;7.286;2023-04-25T02:17:19;99249.31;;;8.56;73.54
55538;BME280;41383;51.418;7.286;2023-04-25T02:19:46;99239.97;;;8.36;74.04
55538;BME280;41383;51.418;7.286;2023-04-25T02:22:11;99250.72;;;8.20;74.30
55538;BME280;41383;51.418;7.286;2023-04-25T02:24:36;99245.28;;;8.20;74.18
55538;BME280;41383;51.418;7.286;2023-04-25T02:27:02;99252.47;;;8.37;74.41
55538;BME280;41383;51.418;7.286;2023-04-25T02:29:28;99251.06;;;8.29;74.65
55538;BME280;41383;51.418;7.286;2023-04-25T02:31:53;99258.88;;;8.20;74.70
55538;BME280;41383;51.418;7.286;2023-04-25T02:34:19;99251.84;;;8.24;74.13
55538;BME280;41383;51.418;7.286;2023-04-25T02:36:44;99253.69;;;8.18;74.72
55538;BME280;41383;51.418;7.286;2023-04-25T02:39:10;99260.53;;;8.21;74.88
55538;BME280;41383;51.418;7.286;2023-04-25T02:41:35;99256.19;;;8.25;75.21
55538;BME280;41383;51.418;7.286;2023-04-25T02:44:01;99257.59;;;8.33;74.62
55538;BME280;41383;51.418;7.286;2023-04-25T02:46:26;99253.69;;;8.18;74.10
55538;BME280;41383;51.418;7.286;2023-04-25T02:48:51;99262.41;;;8.21;74.82
55538;BME280;41383;51.418;7.286;2023-04-25T02:51:16;99264.38;;;8.31;74.69
55538;BME280;41383;51.418;7.286;2023-04-25T02:53:42;99261.19;;;8.44;74.67
55538;BME280;41383;51.418;7.286;2023-04-25T02:56:07;99251.41;;;8.43;73.75
55538;BME280;41383;51.418;7.286;2023-04-25T02:58:32;99252.03;;;8.56;73.86
55538;BME280;41383;51.418;7.286;2023-04-25T03:00:58;99256.06;;;8.48;73.67
55538;BME280;41383;51.418;7.286;2023-04-25T03:03:23;99250.13;;;8.56;73.67
55538;BME280;41383;51.418;7.286;2023-04-25T03:05:49;99254.19;;;8.53;73.99
55538;BME280;41383;51.418;7.286;2023-04-25T03:08:16;99272.31;;;8.43;74.36
55538;BME280;41383;51.418;7.286;2023-04-25T03:10:41;99268.25;;;8.40;75.18
55538;BME280;41383;51.418;7.286;2023-04-25T03:13:06;99272.56;;;8.36;75.20
55538;BME280;41383;51.418;7.286;2023-04-25T03:15:31;99278.25;;;8.34;75.65
55538;BME280;41383;51.418;7.286;2023-04-25T03:17:57;99268.25;;;8.40;75.61
55538;BME280;41383;51.418;7.286;2023-04-25T03:20:22;99260.19;;;8.56;74.43
55538;BME280;41383;51.418;7.286;2023-04-25T03:22:47;99267.25;;;8.57;74.56
55538;BME280;41383;51.418;7.286;2023-04-25T03:25:13;99272.19;;;8.60;74.87
55538;BME280;41383;51.418;7.286;2023-04-25T03:27:38;99270.22;;;8.55;74.83
55538;BME280;41383;51.418;7.286;2023-04-25T03:30:03;99259.72;;;8.64;74.68
55538;BME280;41383;51.418;7.286;2023-04-25T03:32:29;99271.69;;;8.68;74.64
55538;BME280;41383;51.418;7.286;2023-04-25T03:34:54;99270.03;;;8.62;74.76
55538;BME280;41383;51.418;7.286;2023-04-25T03:37:20;99274.47;;;8.79;74.62
55538;BME280;41383;51.418;7.286;2023-04-25T03:39:45;99279.56;;;8.70;74.74
55538;BME280;41383;51.418;7.286;2023-04-25T03:42:10;99283.34;;;8.63;74.91
55538;BME280;41383;51.418;7.286;2023-04-25T03:44:36;99286.75;;;8.48;75.23
55538;BME280;41383;51.418;7.286;2023-04-25T03:47:01;99286.75;;;8.48;75.12
55538;BME280;41383;51.418;7.286;2023-04-25T03:49:26;99289.44;;;8.43;75.39
55538;BME280;41383;51.418;7.286;2023-04-25T03:51:51;99292.72;;;8.45;75.37
55538;BME280;41383;51.418;7.286;2023-04-25T03:54:17;99288.41;;;8.49;75.32
55538;BME280;41383;51.418;7.286;2023-04-25T03:56:42;99292.22;;;8.53;74.97
55538;BME280;41383;51.418;7.286;2023-04-25T03:59:07;99289.28;;;8.60;74.99
55538;BME280;41383;51.418;7.286;2023-04-25T04:01:33;99286.31;;;8.62;75.12
55538;BME280;41383;51.418;7.286;2023-04-25T04:03:58;99289.06;;;8.67;74.62
55538;BME280;41383;51.418;7.286;2023-04-25T04:06:23;99297.59;;;8.43;75.47
55538;BME280;41383;51.418;7.286;2023-04-25T04:08:48;99302.53;;;8.51;74.60
55538;BME280;41383;51.418;7.286;2023-04-25T04:11:14;99290.41;;;8.26;75.75
55538;BME280;41383;51.418;7.286;2023-04-25T04:13:39;99299.28;;;8.11;76.35
55538;BME280;41383;51.418;7.286;2023-04-25T04:16:04;99297.41;;;8.17;76.17
55538;BME280;41383;51.418;7.286;2023-04-25T04:18:30;99296.31;;;8.13;75.41
55538;BME280;41383;51.418;7.286;2023-04-25T04:20:55;99299.72;;;8.36;75.12
55538;BME280;41383;51.418;7.286;2023-04-25T04:23:23;99308.19;;;8.45;74.84
55538;BME280;41383;51.418;7.286;2023-04-25T04:25:48;99304.63;;;8.39;74.52
55538;BME280;41383;51.418;7.286;2023-04-25T04:28:13;99319.03;;;8.01;74.44
55538;BME280;41383;51.418;7.286;2023-04-25T04:30:39;99322.25;;;7.98;74.41
55538;BME280;41383;51.418;7.286;2023-04-25T04:33:04;99314.41;;;8.02;73.17
55538;BME280;41383;51.418;7.286;2023-04-25T04:35:30;99318.94;;;7.91;72.00
55538;BME280;41383;51.418;7.286;2023-04-25T04:37:55;99323.28;;;7.92;70.62
55538;BME280;41383;51.418;7.286;2023-04-25T04:40:21;99330.09;;;7.94;71.52
55538;BME280;41383;51.418;7.286;2023-04-25T04:42:47;99336.25;;;7.85;70.90
55538;BME280;41383;51.418;7.286;2023-04-25T04:45:13;99331.69;;;7.63;71.58
55538;BME280;41383;51.418;7.286;2023-04-25T04:47:38;99340.59;;;7.58;72.67
55538;BME280;41383;51.418;7.286;2023-04-25T04:50:06;99337.13;;;7.63;71.93
55538;BME280;41383;51.418;7.286;2023-04-25T04:52:32;99341.13;;;7.82;71.86
55538;BME280;41383;51.418;7.286;2023-04-25T04:54:57;99339.56;;;7.92;70.97
55538;BME280;41383;51.418;7.286;2023-04-25T04:57:22;99334.75;;;7.99;71.09
55538;BME280;41383;51.418;7.286;2023-04-25T04:59:48;99341.84;;;8.05;70.08
55538;BME280;41383;51.418;7.286;2023-04-25T05:02:13;99339.44;;;8.09;70.58
55538;BME280;41383;51.418;7.286;2023-04-25T05:04:38;99347.03;;;8.07;70.96
55538;BME280;41383;51.418;7.286;2023-04-25T05:07:04;99348.91;;;8.01;71.24
55538;BME280;41383;51.418;7.286;2023-04-25T05:09:29;99347.97;;;7.90;71.48
55538;BME280;41383;51.418;7.286;2023-04-25T05:11:55;99351.53;;;7.96;71.13
55538;BME280;41383;51.418;7.286;2023-04-25T05:14:20;99352.94;;;7.99;71.32
55538;BME280;41383;51.418;7.286;2023-04-25T05:16:46;99354.34;;;8.06;71.29
55538;BME280;41383;51.418;7.286;2023-04-25T05:19:12;99361.28;;;7.92;71.21
55538;BME280;41383;51.418;7.286;2023-04-25T05:21:37;99366.22;;;7.95;71.46
55538;BME280;41383;51.418;7.286;2023-04-25T05:24:03;99363.53;;;8.00;71.09
55538;BME280;41383;51.418;7.286;2023-04-25T05:26:28;99370.03;;;7.99;71.55
55538;BME280;41383;51.418;7.286;2023-04-25T05:28:56;99376.09;;;8.12;70.70
55538;BME280;41383;51.418;7.286;2023-04-25T05:31:22;99384.81;;;8.14;70.40
55538;BME280;41383;51.418;7.286;2023-04-25T05:33:47;99379.44;;;8.19;70.47
55538;BME280;41383;51.418;7.286;2023-04-25T05:36:12;99378.78;;;8.06;70.95
55538;BME280;41383;51.418;7.286;2023-04-25T05:38:37;99390.69;;;8.00;71.17
55538;BME280;41383;51.418;7.286;2023-04-25T05:41:03;99389.47;;;8.18;70.81
55538;BME280;41383;51.418;7.286;2023-04-25T05:43:28;99396.31;;;8.21;70.76
55538;BME280;41383;51.418;7.286;2023-04-25T05:45:53;99398.50;;;8.24;70.82
55538;BME280;41383;51.418;7.286;2023-04-25T05:48:18;99405.91;;;8.34;70.89
55538;BME280;41383;51.418;7.286;2023-04-25T05:50:44;99394.63;;;8.48;70.44
55538;BME280;41383;51.418;7.286;2023-04-25T05:53:09;99400.53;;;8.39;71.10
55538;BME280;41383;51.418;7.286;2023-04-25T05:55:34;99393.22;;;8.40;71.41
55538;BME280;41383;51.418;7.286;2023-04-25T05:57:59;99410.59;;;8.44;71.56
55538;BME280;41383;51.418;7.286;2023-04-25T06:00:25;99405.16;;;8.44;72.09
55538;BME280;41383;51.418;7.286;2023-04-25T06:02:50;99407.50;;;8.58;71.65
55538;BME280;41383;51.418;7.286;2023-04-25T06:05:16;99405.41;;;8.70;71.03
55538;BME280;41383;51.418;7.286;2023-04-25T06:07:41;99405.91;;;8.67;71.41
55538;BME280;41383;51.418;7.286;2023-04-25T06:10:07;99411.06;;;8.63;72.04
55538;BME280;41383;51.418;7.286;2023-04-25T06:12:33;99417.91;;;8.71;71.55
55538;BME280;41383;51.418;7.286;2023-04-25T06:14:59;99412.75;;;8.70;71.78
55538;BME280;41383;51.418;7.286;2023-04-25T06:17:24;99421.72;;;8.70;71.94
55538;BME280;41383;51.418;7.286;2023-04-25T06:19:49;99411.44;;;8.78;71.77
55538;BME280;41383;51.418;7.286;2023-04-25T06:22:14;99420.97;;;8.80;71.29
55538;BME280;41383;51.418;7.286;2023-04-25T06:24:39;99423.78;;;8.96;71.19
55538;BME280;41383;51.418;7.286;2023-04-25T06:27:05;99426.78;;;8.99;71.67
55538;BME280;41383;51.418;7.286;2023-04-25T06:29:30;99419.47;;;9.05;70.60
55538;BME280;41383;51.418;7.286;2023-04-25T06:31:55;99420.53;;;8.99;71.45
55538;BME280;41383;51.418;7.286;2023-04-25T06:34:22;99418.06;;;8.97;71.76
55538;BME280;41383;51.418;7.286;2023-04-25T06:36:47;99425.16;;;8.98;71.03
55538;BME280;41383;51.418;7.286;2023-04-25T06:39:12;99419.06;;;8.81;71.24
55538;BME280;41383;51.418;7.286;2023-04-25T06:41:37;99425.72;;;8.62;71.98
55538;BME280;41383;51.418;7.286;2023-04-25T06:44:03;99418.53;;;8.84;70.51
55538;BME280;41383;51.418;7.286;2023-04-25T06:46:28;99426.34;;;8.75;71.07
55538;BME280;41383;51.418;7.286;2023-04-25T06:48:53;99432.63;;;8.75;71.27
55538;BME280;41383;51.418;7.286;2023-04-25T06:51:18;99429.88;;;8.70;71.73
55538;BME280;41383;51.418;7.286;2023-04-25T06:53:44;99436.25;;;8.92;71.06
55538;BME280;41383;51.418;7.286;2023-04-25T06:56:09;99438.41;;;8.90;70.81
55538;BME280;41383;51.418;7.286;2023-04-25T06:58:35;99432.69;;;8.86;69.70
55538;BME280;41383;51.418;7.286;2023-04-25T07:01:00;99437.16;;;9.03;69.11
55538;BME280;41383;51.418;7.286;2023-04-25T07:03:25;99442.06;;;9.06;68.91
55538;BME280;41383;51.418;7.286;2023-04-25T07:05:50;99438.88;;;9.19;68.33
55538;BME280;41383;51.418;7.286;2023-04-25T07:08:16;99438.31;;;9.17;67.34
55538;BME280;41383;51.418;7.286;2023-04-25T07:10:41;99439.34;;;9.06;66.91
55538;BME280;41383;51.418;7.286;2023-04-25T07:13:07;99455.31;;;9.40;67.17
55538;BME280;41383;51.418;7.286;2023-04-25T07:15:32;99447.59;;;9.21;68.24
55538;BME280;41383;51.418;7.286;2023-04-25T07:17:58;99449.59;;;9.42;66.42
55538;BME280;41383;51.418;7.286;2023-04-25T07:20:23;99448.53;;;9.48;67.41
55538;BME280;41383;51.418;7.286;2023-04-25T07:22:48;99454.69;;;9.22;67.45
55538;BME280;41383;51.418;7.286;2023-04-25T07:25:15;99458.44;;;9.16;67.94
55538;BME280;41383;51.418;7.286;2023-04-25T07:27:40;99458.44;;;9.16;67.49
55538;BME280;41383;51.418;7.286;2023-04-25T07:30:06;99454.63;;;9.17;67.49
55538;BME280;41383;51.418;7.286;2023-04-25T07:32:31;99468.19;;;9.07;68.20
55538;BME280;41383;51.418;7.286;2023-04-25T07:34:57;99461.16;;;9.11;68.25
55538;BME280;41383;51.418;7.286;2023-04-25T07:37:22;99472.66;;;9.29;67.62
55538;BME280;41383;51.418;7.286;2023-04-25T07:39:47;99478.22;;;9.50;66.54
55538;BME280;41383;51.418;7.286;2023-04-25T07:42:13;99468.97;;;9.56;66.63
55538;BME280;41383;51.418;7.286;2023-04-25T07:44:38;99474.97;;;9.58;66.93
55538;BME280;41383;51.418;7.286;2023-04-25T07:47:05;99472.34;;;9.74;66.51
55538;BME280;41383;51.418;7.286;2023-04-25T07:49:35;99481.63;;;9.83;64.52
55538;BME280;41383;51.418;7.286;2023-04-25T07:52:02;99479.94;;;9.72;64.97
55538;BME280;41383;51.418;7.286;2023-04-25T07:54:28;99478.13;;;9.34;65.42
55538;BME280;41383;51.418;7.286;2023-04-25T07:56:53;99483.63;;;9.39;64.43
55538;BME280;41383;51.418;7.286;2023-04-25T07:59:19;99485.91;;;9.68;64.79
55538;BME280;41383;51.418;7.286;2023-04-25T08:01:44;99481.56;;;9.67;64.84
55538;BME280;41383;51.418;7.286;2023-04-25T08:04:09;99493.84;;;9.80;64.27
55538;BME280;41383;51.418;7.286;2023-04-25T08:06:35;99495.19;;;9.67;62.43
55538;BME280;41383;51.418;7.286;2023-04-25T08:09:01;99504.63;;;9.54;63.86
55538;BME280;41383;51.418;7.286;2023-04-25T08:11:26;99506.69;;;9.85;63.61
55538;BME280;41383;51.418;7.286;2023-04-25T08:13:51;99522.28;;;10.00;62.62
55538;BME280;41383;51.418;7.286;2023-04-25T08:16:17;99524.72;;;10.07;60.87
55538;BME280;41383;51.418;7.286;2023-04-25T08:18:42;99526.38;;;10.08;60.30
55538;BME280;41383;51.418;7.286;2023-04-25T08:21:07;99531.00;;;10.08;59.89
55538;BME280;41383;51.418;7.286;2023-04-25T08:23:34;99532.59;;;9.98;59.80
55538;BME280;41383;51.418;7.286;2023-04-25T08:25:59;99529.84;;;9.93;61.12
55538;BME280;41383;51.418;7.286;2023-04-25T08:28:24;99533.97;;;10.01;61.54
55538;BME280;41383;51.418;7.286;2023-04-25T08:30:50;99545.91;;;9.95;58.98
55538;BME280;41383;51.418;7.286;2023-04-25T08:33:15;99539.94;;;9.98;60.70
55538;BME280;41383;51.418;7.286;2023-04-25T08:35:40;99544.84;;;9.90;58.97
55538;BME280;41383;51.418;7.286;2023-04-25T08:38:05;99551.41;;;10.00;58.74
55538;BME280;41383;51.418;7.286;2023-04-25T08:40:35;99546.50;;;10.07;58.28
55538;BME280;41383;51.418;7.286;2023-04-25T08:43:03;99555.31;;;10.30;58.53
55538;BME280;41383;51.418;7.286;2023-04-25T08:45:31;99552.06;;;10.38;58.12
55538;BME280;41383;51.418;7.286;2023-04-25T08:47:57;99557.03;;;10.62;56.68
55538;BME280;41383;51.418;7.286;2023-04-25T08:50:23;99553.25;;;10.74;57.37
55538;BME280;41383;51.418;7.286;2023-04-25T08:52:53;99561.41;;;10.69;56.32
55538;BME280;41383;51.418;7.286;2023-04-25T08:55:19;99565.19;;;10.47;57.00
55538;BME280;41383;51.418;7.286;2023-04-25T08:57:47;99570.25;;;10.12;55.04
55538;BME280;41383;51.418;7.286;2023-04-25T09:00:13;99579.25;;;10.18;56.66
55538;BME280;41383;51.418;7.286;2023-04-25T09:02:42;99578.13;;;10.13;57.39
55538;BME280;41383;51.418;7.286;2023-04-25T09:05:09;99576.13;;;9.93;57.28
55538;BME280;41383;51.418;7.286;2023-04-25T09:07:34;99587.41;;;10.12;57.71
55538;BME280;41383;51.418;7.286;2023-04-25T09:10:00;99582.97;;;10.01;57.50
55538;BME280;41383;51.418;7.286;2023-04-25T09:12:29;99592.59;;;10.19;56.25
55538;BME280;41383;51.418;7.286;2023-04-25T09:15:06;99594.28;;;10.31;56.15
55538;BME280;41383;51.418;7.286;2023-04-25T09:17:31;99596.84;;;10.53;56.66
55538;BME280;41383;51.418;7.286;2023-04-25T09:20:12;99596.03;;;10.68;54.20
55538;BME280;41383;51.418;7.286;2023-04-25T09:22:38;99593.09;;;10.96;53.80
55538;BME280;41383;51.418;7.286;2023-04-25T09:25:10;99599.63;;;11.11;52.01
55538;BME280;41383;51.418;7.286;2023-04-25T09:27:36;99603.72;;;11.13;53.33
55538;BME280;41383;51.418;7.286;2023-04-25T09:30:02;99592.28;;;11.27;51.79
55538;BME280;41383;51.418;7.286;2023-04-25T09:32:28;99593.38;;;11.20;50.69
55538;BME280;41383;51.418;7.286;2023-04-25T09:34:55;99601.56;;;11.10;51.72
55538;BME280;41383;51.418;7.286;2023-04-25T09:37:25;99604.00;;;11.17;50.04
55538;BME280;41383;51.418;7.286;2023-04-25T09:39:54;99610.03;;;11.35;50.19
55538;BME280;41383;51.418;7.286;2023-04-25T09:42:22;99608.38;;;11.33;50.32
55538;BME280;41383;51.418;7.286;2023-04-25T09:44:51;99610.03;;;11.24;49.89
55538;BME280;41383;51.418;7.286;2023-04-25T09:47:17;99616.31;;;11.25;49.68
55538;BME280;41383;51.418;7.286;2023-04-25T09:49:43;99625.84;;;11.32;49.94
55538;BME280;41383;51.418;7.286;2023-04-25T09:52:13;99622.81;;;11.60;49.56
55538;BME280;41383;51.418;7.286;2023-04-25T09:54:39;99617.09;;;11.67;49.41
55538;BME280;41383;51.418;7.286;2023-04-25T09:59:38;99618.47;;;11.43;50.58
55538;BME280;41383;51.418;7.286;2023-04-25T10:02:05;99625.28;;;11.51;51.50
55538;BME280;41383;51.418;7.286;2023-04-25T10:04:34;99629.91;;;11.46;51.37
55538;BME280;41383;51.418;7.286;2023-04-25T10:07:01;99635.38;;;11.56;51.64
55538;BME280;41383;51.418;7.286;2023-04-25T10:09:28;99634.00;;;11.53;49.72
55538;BME280;41383;51.418;7.286;2023-04-25T10:11:59;99630.19;;;11.54;49.24
55538;BME280;41383;51.418;7.286;2023-04-25T10:14:25;99638.69;;;11.42;49.09
55538;BME280;41383;51.418;7.286;2023-04-25T10:16:51;99639.47;;;11.59;49.42
55538;BME280;41383;51.418;7.286;2023-04-25T10:19:19;99645.22;;;11.47;48.95
55538;BME280;41383;51.418;7.286;2023-04-25T10:21:54;99649.31;;;11.39;49.74
55538;BME280;41383;51.418;7.286;2023-04-25T10:24:20;99642.19;;;11.69;48.41
55538;BME280;41383;51.418;7.286;2023-04-25T10:26:47;99638.31;;;12.12;49.33
55538;BME280;41383;51.418;7.286;2023-04-25T10:29:21;99643.66;;;12.43;47.50
55538;BME280;41383;51.418;7.286;2023-04-25T10:31:46;99650.97;;;12.58;46.62
55538;BME280;41383;51.418;7.286;2023-04-25T10:34:16;99646.41;;;12.38;46.02
55538;BME280;41383;51.418;7.286;2023-04-25T10:36:41;99637.72;;;12.25;45.91
55538;BME280;41383;51.418;7.286;2023-04-25T10:39:07;99642.91;;;12.06;45.88
55538;BME280;41383;51.418;7.286;2023-04-25T10:41:46;99655.59;;;11.50;44.13
55538;BME280;41383;51.418;7.286;2023-04-25T10:44:13;99652.84;;;11.39;46.15
55538;BME280;41383;51.418;7.286;2023-04-25T10:46:38;99651.22;;;11.33;46.13
55538;BME280;41383;51.418;7.286;2023-04-25T10:49:04;99662.41;;;11.26;46.78
55538;BME280;41383;51.418;7.286;2023-04-25T10:51:31;99661.31;;;11.27;47.19
55538;BME280;41383;51.418;7.286;2023-04-25T10:54:09;99660.22;;;11.18;46.48
55538;BME280;41383;51.418;7.286;2023-04-25T10:56:39;99654.22;;;11.21;46.66
55538;BME280;41383;51.418;7.286;2023-04-25T10:59:18;99659.41;;;11.38;45.92
55538;BME280;41383;51.418;7.286;2023-04-25T11:01:47;99655.59;;;11.34;46.17
55538;BME280;41383;51.418;7.286;2023-04-25T11:04:20;99659.16;;;11.35;45.99
55538;BME280;41383;51.418;7.286;2023-04-25T11:07:07;99664.31;;;11.36;46.12
55538;BME280;41383;51.418;7.286;2023-04-25T11:09:38;99660.78;;;11.36;46.76
55538;BME280;41383;51.418;7.286;2023-04-25T11:12:04;99668.41;;;11.23;46.98
55538;BME280;41383;51.418;7.286;2023-04-25T11:14:31;99658.56;;;11.12;46.37
55538;BME280;41383;51.418;7.286;2023-04-25T11:16:58;99660.97;;;10.77;46.92
55538;BME280;41383;51.418;7.286;2023-04-25T11:19:25;99682.31;;;10.31;49.13
55538;BME280;41383;51.418;7.286;2023-04-25T11:21:50;99687.50;;;10.38;51.61
55538;BME280;41383;51.418;7.286;2023-04-25T11:24:16;99689.38;;;10.32;52.94
55538;BME280;41383;51.418;7.286;2023-04-25T11:26:43;99694.28;;;10.35;54.39
55538;BME280;41383;51.418;7.286;2023-04-25T11:29:08;99702.44;;;10.25;55.32
55538;BME280;41383;51.418;7.286;2023-04-25T11:31:34;99699.31;;;10.00;56.19
55538;BME280;41383;51.418;7.286;2023-04-25T11:33:59;99704.88;;;9.78;57.79
55538;BME280;41383;51.418;7.286;2023-04-25T11:36:25;99713.44;;;9.59;57.70
55538;BME280;41383;51.418;7.286;2023-04-25T11:38:52;99709.75;;;9.76;57.80
55538;BME280;41383;51.418;7.286;2023-04-25T11:41:18;99713.28;;;10.14;57.60
55538;BME280;41383;51.418;7.286;2023-04-25T11:43:44;99713.59;;;10.23;56.35
55538;BME280;41383;51.418;7.286;2023-04-25T11:46:09;99717.22;;;10.39;56.20
55538;BME280;41383;51.418;7.286;2023-04-25T11:48:39;99709.50;;;10.21;56.04
55538;BME280;41383;51.418;7.286;2023-04-25T11:51:05;99713.06;;;10.26;56.15
55538;BME280;41383;51.418;7.286;2023-04-25T11:53:30;99710.50;;;10.58;54.57
55538;BME280;41383;51.418;7.286;2023-04-25T11:55:56;99708.59;;;10.53;55.59
55538;BME280;41383;51.418;7.286;2023-04-25T11:58:21;99710.34;;;10.91;55.33
55538;BME280;41383;51.418;7.286;2023-04-25T12:00:46;99706.50;;;10.76;54.14
55538;BME280;41383;51.418;7.286;2023-04-25T12:03:12;99701.53;;;10.57;52.92
55538;BME280;41383;51.418;7.286;2023-04-25T12:05:37;99704.50;;;10.56;52.75
55538;BME280;41383;51.418;7.286;2023-04-25T12:08:12;99706.81;;;10.85;51.98
55538;BME280;41383;51.418;7.286;2023-04-25T12:10:39;99710.16;;;11.29;51.42
55538;BME280;41383;51.418;7.286;2023-04-25T12:13:25;99709.66;;;11.79;50.31
55538;BME280;41383;51.418;7.286;2023-04-25T12:15:51;99716.44;;;12.02;49.06
55538;BME280;41383;51.418;7.286;2023-04-25T12:18:19;99707.13;;;12.30;48.16
55538;BME280;41383;51.418;7.286;2023-04-25T12:20:46;99705.66;;;12.53;46.58
55538;BME280;41383;51.418;7.286;2023-04-25T12:23:11;99708.06;;;12.70;46.84
55538;BME280;41383;51.418;7.286;2023-04-25T12:25:39;99698.69;;;12.87;46.13
55538;BME280;41383;51.418;7.286;2023-04-25T12:30:59;99707.09;;;13.01;43.79
55538;BME280;41383;51.418;7.286;2023-04-25T12:33:26;99705.91;;;12.62;44.47
55538;BME280;41383;51.418;7.286;2023-04-25T12:35:56;99709.84;;;12.30;44.71
55538;BME280;41383;51.418;7.286;2023-04-25T12:38:24;99713.72;;;12.18;44.63
55538;BME280;41383;51.418;7.286;2023-04-25T12:40:49;99710.16;;;11.97;44.59
55538;BME280;41383;51.418;7.286;2023-04-25T12:43:15;99707.41;;;12.28;45.06
55538;BME280;41383;51.418;7.286;2023-04-25T12:45:40;99709.25;;;12.43;45.42
55538;BME280;41383;51.418;7.286;2023-04-25T12:48:05;99707.09;;;12.40;44.76
55538;BME280;41383;51.418;7.286;2023-04-25T12:50:31;99705.44;;;12.39;44.14
55538;BME280;41383;51.418;7.286;2023-04-25T12:52:56;99708.84;;;12.76;43.58
55538;BME280;41383;51.418;7.286;2023-04-25T12:55:21;99712.50;;;12.56;44.03
55538;BME280;41383;51.418;7.286;2023-04-25T12:57:47;99711.41;;;12.52;45.41
55538;BME280;41383;51.418;7.286;2023-04-25T13:00:12;99718.28;;;13.05;43.58
55538;BME280;41383;51.418;7.286;2023-04-25T13:02:40;99715.50;;;13.10;43.68
55538;BME280;41383;51.418;7.286;2023-04-25T13:05:06;99705.97;;;13.42;42.06
55538;BME280;41383;51.418;7.286;2023-04-25T13:07:31;99702.97;;;13.79;41.27